sensor_id;sensor_type;location;lat;lon;timestamp;P1;durP1;ratioP1;P2;durP2;ratioP2
28587;SDS011;15787;49.662;10.162;2023-05-10T00:01:48;0.00;;;0.00;;
28587;SDS011;15787;49.662;10.162;2023-05-10T00:04:21;0.00;;;0.00;;
28587;SDS011;15787;49.662;10.162;2023-05-10T00:06:54;0.00;;;0.00;;
28587;SDS011;15787;49.662;10.162;2023-05-10T00:09:28;0.00;;;0.00;;
28587;SDS011;15787;49.662;10.162;2023-05-10T00:12:01;0.00;;;0.00;;
28587;SDS011;15787;49.662;10.162;2023-05-10T00:14:34;0.00;;;0.00;;
28587;SDS011;15787;49.662;10.162;2023-05-10T00:17:07;0.00;;;0.00;;
28587;SDS011;15787;49.662;10.162;2023-05-10T00:19:40;0.00;;;0.00;;
28587;SDS011;15787;49.662;10.162;2023-05-10T00:22:12;0.63;;;0.38;;
28587;SDS011;15787;49.662;10.162;2023-05-10T00:24:47;0.00;;;0.00;;
28587;SDS011;15787;49.662;10.162;2023-05-10T00:27:20;0.10;;;0.10;;
28587;SDS011;15787;49.662;10.162;2023-05-10T00:29:55;0.00;;;0.00;;
28587;SDS011;15787;49.662;10.162;2023-05-10T00:32:28;0.00;;;0.00;;
28587;SDS011;15787;49.662;10.162;2023-05-10T00:35:01;0.05;;;0.05;;
28587;SDS011;15787;49.662;10.162;2023-05-10T00:37:34;0.00;;;0.00;;
28587;SDS011;15787;49.662;10.162;2023-05-10T00:40:08;0.00;;;0.00;;
28587;SDS011;15787;49.662;10.162;2023-05-10T00:42:42;0.00;;;0.00;;
28587;SDS011;15787;49.662;10.162;2023-05-10T00:45:15;0.00;;;0.00;;
28587;SDS011;15787;49.662;10.162;2023-05-10T00:47:48;0.00;;;0.00;;
28587;SDS011;15787;49.662;10.162;2023-05-10T00:50:21;0.05;;;0.05;;
28587;SDS011;15787;49.662;10.162;2023-05-10T00:52:54;0.00;;;0.00;;
28587;SDS011;15787;49.662;10.162;2023-05-10T00:55:28;0.00;;;0.00;;
28587;SDS011;15787;49.662;10.162;2023-05-10T00:58:02;0.00;;;0.00;;
28587;SDS011;15787;49.662;10.162;2023-05-10T01:00:37;0.00;;;0.00;;
28587;SDS011;15787;49.662;10.162;2023-05-10T01:03:11;0.00;;;0.00;;
28587;SDS011;15787;49.662;10.162;2023-05-10T01:05:45;0.00;;;0.00;;
28587;SDS011;15787;49.662;10.162;2023-05-10T01:08:18;0.00;;;0.00;;
28587;SDS011;15787;49.662;10.162;2023-05-10T01:10:53;0.00;;;0.00;;
28587;SDS011;15787;49.662;10.162;2023-05-10T01:13:29;0.00;;;0.00;;
28587;SDS011;15787;49.662;10.162;2023-05-10T01:16:05;0.00;;;0.00;;
28587;SDS011;15787;49.662;10.162;2023-05-10T01:18:39;0.00;;;0.00;;
28587;SDS011;15787;49.662;10.162;2023-05-10T01:21:17;0.08;;;0.08;;
28587;SDS011;15787;49.662;10.162;2023-05-10T01:27:30;0.00;;;0.00;;
28587;SDS011;15787;49.662;10.162;2023-05-10T01:33:30;0.00;;;0.00;;
28587;SDS011;15787;49.662;10.162;2023-05-10T01:36:08;0.00;;;0.00;;
28587;SDS011;15787;49.662;10.162;2023-05-10T01:38:51;0.00;;;0.00;;
28587;SDS011;15787;49.662;10.162;2023-05-10T01:41:40;0.00;;;0.00;;
28587;SDS011;15787;49.662;10.162;2023-05-10T01:44:22;0.00;;;0.00;;
28587;SDS011;15787;49.662;10.162;2023-05-10T01:47:03;0.00;;;0.00;;
28587;SDS011;15787;49.662;10.162;2023-05-10T01:49:41;0.00;;;0.00;;
28587;SDS011;15787;49.662;10.162;2023-05-10T01:52:19;0.00;;;0.00;;
28587;SDS011;15787;49.662;10.162;2023-05-10T01:55:00;0.00;;;0.00;;
28587;SDS011;15787;49.662;10.162;2023-05-10T01:57:36;0.00;;;0.00;;
28587;SDS011;15787;49.662;10.162;2023-05-10T02:00:12;0.00;;;0.00;;
28587;SDS011;15787;49.662;10.162;2023-05-10T02:02:48;0.00;;;0.00;;
28587;SDS011;15787;49.662;10.162;2023-05-10T02:05:23;0.00;;;0.00;;
28587;SDS011;15787;49.662;10.162;2023-05-10T02:07:57;0.00;;;0.00;;
28587;SDS011;15787;49.662;10.162;2023-05-10T02:10:33;0.00;;;0.00;;
28587;SDS011;15787;49.662;10.162;2023-05-10T02:13:07;0.00;;;0.00;;
28587;SDS011;15787;49.662;10.162;2023-05-10T02:15:42;0.00;;;0.00;;
28587;SDS011;15787;49.662;10.162;2023-05-10T02:18:19;0.00;;;0.00;;
28587;SDS011;15787;49.662;10.162;2023-05-10T02:20:53;0.00;;;0.00;;
28587;SDS011;15787;49.662;10.162;2023-05-10T02:23:28;0.00;;;0.00;;
28587;SDS011;15787;49.662;10.162;2023-05-10T02:26:01;0.00;;;0.00;;
28587;SDS011;15787;49.662;10.162;2023-05-10T02:28:37;0.00;;;0.00;;
28587;SDS011;15787;49.662;10.162;2023-05-10T02:31:12;0.03;;;0.03;;
28587;SDS011;15787;49.662;10.162;2023-05-10T02:33:46;0.00;;;0.00;;
28587;SDS011;15787;49.662;10.162;2023-05-10T02:36:23;0.00;;;0.00;;
28587;SDS011;15787;49.662;10.162;2023-05-10T02:38:58;0.00;;;0.00;;
28587;SDS011;15787;49.662;10.162;2023-05-10T02:41:34;0.00;;;0.00;;
28587;SDS011;15787;49.662;10.162;2023-05-10T02:44:07;0.00;;;0.00;;
28587;SDS011;15787;49.662;10.162;2023-05-10T02:46:41;0.00;;;0.00;;
28587;SDS011;15787;49.662;10.162;2023-05-10T02:49:14;0.00;;;0.00;;
28587;SDS011;15787;49.662;10.162;2023-05-10T02:51:50;0.00;;;0.00;;
28587;SDS011;15787;49.662;10.162;2023-05-10T02:54:29;0.00;;;0.00;;
28587;SDS011;15787;49.662;10.162;2023-05-10T02:57:04;0.88;;;0.88;;
28587;SDS011;15787;49.662;10.162;2023-05-10T02:59:38;0.00;;;0.00;;
28587;SDS011;15787;49.662;10.162;2023-05-10T03:02:14;0.00;;;0.00;;
28587;SDS011;15787;49.662;10.162;2023-05-10T03:04:47;0.00;;;0.00;;
28587;SDS011;15787;49.662;10.162;2023-05-10T03:07:22;0.00;;;0.00;;
28587;SDS011;15787;49.662;10.162;2023-05-10T03:09:55;0.00;;;0.00;;
28587;SDS011;15787;49.662;10.162;2023-05-10T03:12:31;0.00;;;0.00;;
28587;SDS011;15787;49.662;10.162;2023-05-10T03:15:16;0.00;;;0.00;;
28587;SDS011;15787;49.662;10.162;2023-05-10T03:17:55;0.00;;;0.00;;
28587;SDS011;15787;49.662;10.162;2023-05-10T03:20:34;0.00;;;0.00;;
28587;SDS011;15787;49.662;10.162;2023-05-10T03:23:12;0.00;;;0.00;;
28587;SDS011;15787;49.662;10.162;2023-05-10T03:25:53;0.00;;;0.00;;
28587;SDS011;15787;49.662;10.162;2023-05-10T03:28:27;0.00;;;0.00;;
28587;SDS011;15787;49.662;10.162;2023-05-10T03:31:00;0.00;;;0.00;;
28587;SDS011;15787;49.662;10.162;2023-05-10T03:33:35;0.00;;;0.00;;
28587;SDS011;15787;49.662;10.162;2023-05-10T03:36:08;0.00;;;0.00;;
28587;SDS011;15787;49.662;10.162;2023-05-10T03:38:43;0.00;;;0.00;;
28587;SDS011;15787;49.662;10.162;2023-05-10T03:41:16;0.00;;;0.00;;
28587;SDS011;15787;49.662;10.162;2023-05-10T03:43:48;0.00;;;0.00;;
28587;SDS011;15787;49.662;10.162;2023-05-10T03:46:21;0.00;;;0.00;;
28587;SDS011;15787;49.662;10.162;2023-05-10T03:48:54;0.00;;;0.00;;
28587;SDS011;15787;49.662;10.162;2023-05-10T03:51:27;0.00;;;0.00;;
28587;SDS011;15787;49.662;10.162;2023-05-10T03:54:04;0.00;;;0.00;;
28587;SDS011;15787;49.662;10.162;2023-05-10T03:56:37;0.00;;;0.00;;
28587;SDS011;15787;49.662;10.162;2023-05-10T03:59:10;0.00;;;0.00;;
28587;SDS011;15787;49.662;10.162;2023-05-10T04:01:43;0.00;;;0.00;;
28587;SDS011;15787;49.662;10.162;2023-05-10T04:04:16;0.00;;;0.00;;
28587;SDS011;15787;49.662;10.162;2023-05-10T04:06:52;0.00;;;0.00;;
28587;SDS011;15787;49.662;10.162;2023-05-10T04:09:27;0.00;;;0.00;;
28587;SDS011;15787;49.662;10.162;2023-05-10T04:12:00;0.00;;;0.00;;
28587;SDS011;15787;49.662;10.162;2023-05-10T04:14:33;0.00;;;0.00;;
28587;SDS011;15787;49.662;10.162;2023-05-10T04:17:06;0.00;;;0.00;;
28587;SDS011;15787;49.662;10.162;2023-05-10T04:19:39;0.00;;;0.00;;
28587;SDS011;15787;49.662;10.162;2023-05-10T04:22:12;0.00;;;0.00;;
28587;SDS011;15787;49.662;10.162;2023-05-10T04:24:47;0.00;;;0.00;;
28587;SDS011;15787;49.662;10.162;2023-05-10T04:27:20;0.00;;;0.00;;
28587;SDS011;15787;49.662;10.162;2023-05-10T04:29:52;0.00;;;0.00;;
28587;SDS011;15787;49.662;10.162;2023-05-10T04:32:26;0.00;;;0.00;;
28587;SDS011;15787;49.662;10.162;2023-05-10T04:34:59;0.00;;;0.00;;
28587;SDS011;15787;49.662;10.162;2023-05-10T04:37:34;0.00;;;0.00;;
28587;SDS011;15787;49.662;10.162;2023-05-10T04:40:10;0.40;;;0.40;;
28587;SDS011;15787;49.662;10.162;2023-05-10T04:42:43;0.00;;;0.00;;
28587;SDS011;15787;49.662;10.162;2023-05-10T04:45:16;0.00;;;0.00;;
28587;SDS011;15787;49.662;10.162;2023-05-10T04:47:49;0.00;;;0.00;;
28587;SDS011;15787;49.662;10.162;2023-05-10T04:50:22;0.00;;;0.00;;
28587;SDS011;15787;49.662;10.162;2023-05-10T04:52:55;0.00;;;0.00;;
28587;SDS011;15787;49.662;10.162;2023-05-10T04:55:29;0.00;;;0.00;;
28587;SDS011;15787;49.662;10.162;2023-05-10T04:58:02;0.00;;;0.00;;
28587;SDS011;15787;49.662;10.162;2023-05-10T05:00:35;49.50;;;4.65;;
28587;SDS011;15787;49.662;10.162;2023-05-10T05:03:08;0.00;;;0.00;;
28587;SDS011;15787;49.662;10.162;2023-05-10T05:05:42;0.00;;;0.00;;
28587;SDS011;15787;49.662;10.162;2023-05-10T05:08:16;0.10;;;0.10;;
28587;SDS011;15787;49.662;10.162;2023-05-10T05:10:50;0.00;;;0.00;;
28587;SDS011;15787;49.662;10.162;2023-05-10T05:13:23;0.00;;;0.00;;
28587;SDS011;15787;49.662;10.162;2023-05-10T05:15:56;0.00;;;0.00;;
28587;SDS011;15787;49.662;10.162;2023-05-10T05:18:29;2.20;;;2.05;;
28587;SDS011;15787;49.662;10.162;2023-05-10T05:21:02;0.00;;;0.00;;
28587;SDS011;15787;49.662;10.162;2023-05-10T05:23:35;0.00;;;0.00;;
28587;SDS011;15787;49.662;10.162;2023-05-10T05:26:09;0.00;;;0.00;;
28587;SDS011;15787;49.662;10.162;2023-05-10T05:28:42;0.00;;;0.00;;
28587;SDS011;15787;49.662;10.162;2023-05-10T05:31:15;0.00;;;0.00;;
28587;SDS011;15787;49.662;10.162;2023-05-10T05:33:49;0.00;;;0.00;;
28587;SDS011;15787;49.662;10.162;2023-05-10T05:36:22;0.00;;;0.00;;
28587;SDS011;15787;49.662;10.162;2023-05-10T05:38:55;0.00;;;0.00;;
28587;SDS011;15787;49.662;10.162;2023-05-10T05:41:29;0.00;;;0.00;;
28587;SDS011;15787;49.662;10.162;2023-05-10T05:44:02;0.00;;;0.00;;
28587;SDS011;15787;49.662;10.162;2023-05-10T05:46:35;0.00;;;0.00;;
28587;SDS011;15787;49.662;10.162;2023-05-10T05:49:08;0.00;;;0.00;;
28587;SDS011;15787;49.662;10.162;2023-05-10T05:51:41;0.00;;;0.00;;
28587;SDS011;15787;49.662;10.162;2023-05-10T05:54:14;0.00;;;0.00;;
28587;SDS011;15787;49.662;10.162;2023-05-10T05:56:48;0.00;;;0.00;;
28587;SDS011;15787;49.662;10.162;2023-05-10T05:59:21;0.00;;;0.00;;
28587;SDS011;15787;49.662;10.162;2023-05-10T06:01:54;0.00;;;0.00;;
28587;SDS011;15787;49.662;10.162;2023-05-10T06:04:27;0.00;;;0.00;;
28587;SDS011;15787;49.662;10.162;2023-05-10T06:07:00;0.00;;;0.00;;
28587;SDS011;15787;49.662;10.162;2023-05-10T06:09:33;0.00;;;0.00;;
28587;SDS011;15787;49.662;10.162;2023-05-10T06:12:07;0.00;;;0.00;;
28587;SDS011;15787;49.662;10.162;2023-05-10T06:14:40;0.00;;;0.00;;
28587;SDS011;15787;49.662;10.162;2023-05-10T06:17:13;0.00;;;0.00;;
28587;SDS011;15787;49.662;10.162;2023-05-10T06:19:45;0.00;;;0.00;;
28587;SDS011;15787;49.662;10.162;2023-05-10T06:22:18;0.00;;;0.00;;
28587;SDS011;15787;49.662;10.162;2023-05-10T06:24:53;0.00;;;0.00;;
28587;SDS011;15787;49.662;10.162;2023-05-10T06:27:28;0.00;;;0.00;;
28587;SDS011;15787;49.662;10.162;2023-05-10T06:30:00;0.00;;;0.00;;
28587;SDS011;15787;49.662;10.162;2023-05-10T06:32:43;0.00;;;0.00;;
28587;SDS011;15787;49.662;10.162;2023-05-10T06:35:16;0.00;;;0.00;;
28587;SDS011;15787;49.662;10.162;2023-05-10T06:37:50;0.00;;;0.00;;
28587;SDS011;15787;49.662;10.162;2023-05-10T06:40:23;0.00;;;0.00;;
28587;SDS011;15787;49.662;10.162;2023-05-10T06:42:57;0.00;;;0.00;;
28587;SDS011;15787;49.662;10.162;2023-05-10T06:45:30;0.00;;;0.00;;
28587;SDS011;15787;49.662;10.162;2023-05-10T06:48:03;0.00;;;0.00;;
28587;SDS011;15787;49.662;10.162;2023-05-10T06:50:36;0.00;;;0.00;;
28587;SDS011;15787;49.662;10.162;2023-05-10T06:53:09;0.00;;;0.00;;
28587;SDS011;15787;49.662;10.162;2023-05-10T06:55:43;0.00;;;0.00;;
28587;SDS011;15787;49.662;10.162;2023-05-10T06:58:17;0.00;;;0.00;;
28587;SDS011;15787;49.662;10.162;2023-05-10T07:00:50;0.00;;;0.00;;
28587;SDS011;15787;49.662;10.162;2023-05-10T07:03:23;0.00;;;0.00;;
28587;SDS011;15787;49.662;10.162;2023-05-10T07:05:59;0.00;;;0.00;;
28587;SDS011;15787;49.662;10.162;2023-05-10T07:08:34;0.00;;;0.00;;
28587;SDS011;15787;49.662;10.162;2023-05-10T07:11:07;0.20;;;0.20;;
28587;SDS011;15787;49.662;10.162;2023-05-10T07:13:41;0.00;;;0.00;;
28587;SDS011;15787;49.662;10.162;2023-05-10T07:16:15;0.00;;;0.00;;
28587;SDS011;15787;49.662;10.162;2023-05-10T07:18:48;0.00;;;0.00;;
28587;SDS011;15787;49.662;10.162;2023-05-10T07:21:22;0.00;;;0.00;;
28587;SDS011;15787;49.662;10.162;2023-05-10T07:23:55;0.00;;;0.00;;
28587;SDS011;15787;49.662;10.162;2023-05-10T07:26:28;0.00;;;0.00;;
28587;SDS011;15787;49.662;10.162;2023-05-10T07:29:02;0.10;;;0.10;;
28587;SDS011;15787;49.662;10.162;2023-05-10T07:31:35;0.00;;;0.00;;
28587;SDS011;15787;49.662;10.162;2023-05-10T07:34:08;0.00;;;0.00;;
28587;SDS011;15787;49.662;10.162;2023-05-10T07:36:41;0.00;;;0.00;;
28587;SDS011;15787;49.662;10.162;2023-05-10T07:39:14;0.00;;;0.00;;
28587;SDS011;15787;49.662;10.162;2023-05-10T07:41:58;0.00;;;0.00;;
28587;SDS011;15787;49.662;10.162;2023-05-10T07:44:32;0.08;;;0.08;;
28587;SDS011;15787;49.662;10.162;2023-05-10T07:47:05;0.00;;;0.00;;
28587;SDS011;15787;49.662;10.162;2023-05-10T07:49:38;0.00;;;0.00;;
28587;SDS011;15787;49.662;10.162;2023-05-10T07:52:11;0.00;;;0.00;;
28587;SDS011;15787;49.662;10.162;2023-05-10T07:54:45;0.00;;;0.00;;
28587;SDS011;15787;49.662;10.162;2023-05-10T07:57:17;0.00;;;0.00;;
28587;SDS011;15787;49.662;10.162;2023-05-10T07:59:52;0.00;;;0.00;;
28587;SDS011;15787;49.662;10.162;2023-05-10T08:02:24;0.00;;;0.00;;
28587;SDS011;15787;49.662;10.162;2023-05-10T08:04:57;0.00;;;0.00;;
28587;SDS011;15787;49.662;10.162;2023-05-10T08:07:30;0.00;;;0.00;;
28587;SDS011;15787;49.662;10.162;2023-05-10T08:10:04;0.40;;;0.40;;
28587;SDS011;15787;49.662;10.162;2023-05-10T08:12:38;0.00;;;0.00;;
28587;SDS011;15787;49.662;10.162;2023-05-10T08:15:12;2.47;;;1.30;;
28587;SDS011;15787;49.662;10.162;2023-05-10T08:17:45;4.95;;;2.60;;
28587;SDS011;15787;49.662;10.162;2023-05-10T08:20:18;2.90;;;1.65;;
28587;SDS011;15787;49.662;10.162;2023-05-10T08:22:52;4.00;;;1.42;;
28587;SDS011;15787;49.662;10.162;2023-05-10T08:25:24;6.18;;;1.30;;
28587;SDS011;15787;49.662;10.162;2023-05-10T08:27:57;2.67;;;1.50;;
28587;SDS011;15787;49.662;10.162;2023-05-10T08:30:32;1.75;;;1.13;;
28587;SDS011;15787;49.662;10.162;2023-05-10T08:33:04;3.70;;;1.50;;
28587;SDS011;15787;49.662;10.162;2023-05-10T08:35:37;3.53;;;1.60;;
28587;SDS011;15787;49.662;10.162;2023-05-10T08:38:10;3.13;;;1.45;;
28587;SDS011;15787;49.662;10.162;2023-05-10T08:40:44;2.85;;;1.50;;
28587;SDS011;15787;49.662;10.162;2023-05-10T08:43:18;4.47;;;1.73;;
28587;SDS011;15787;49.662;10.162;2023-05-10T08:45:53;2.30;;;1.73;;
28587;SDS011;15787;49.662;10.162;2023-05-10T08:48:28;4.30;;;1.92;;
28587;SDS011;15787;49.662;10.162;2023-05-10T08:51:02;1.98;;;1.25;;
28587;SDS011;15787;49.662;10.162;2023-05-10T08:53:36;3.70;;;1.38;;
28587;SDS011;15787;49.662;10.162;2023-05-10T08:56:10;5.55;;;2.17;;
28587;SDS011;15787;49.662;10.162;2023-05-10T08:58:43;5.28;;;1.73;;
28587;SDS011;15787;49.662;10.162;2023-05-10T09:01:17;4.68;;;1.80;;
28587;SDS011;15787;49.662;10.162;2023-05-10T09:03:50;5.53;;;1.80;;
28587;SDS011;15787;49.662;10.162;2023-05-10T09:06:23;3.35;;;1.60;;
28587;SDS011;15787;49.662;10.162;2023-05-10T09:08:57;2.63;;;1.65;;
28587;SDS011;15787;49.662;10.162;2023-05-10T09:11:31;5.43;;;1.38;;
28587;SDS011;15787;49.662;10.162;2023-05-10T09:14:04;3.65;;;1.70;;
28587;SDS011;15787;49.662;10.162;2023-05-10T09:16:39;2.40;;;1.50;;
28587;SDS011;15787;49.662;10.162;2023-05-10T09:19:12;3.53;;;1.50;;
28587;SDS011;15787;49.662;10.162;2023-05-10T09:21:45;2.28;;;1.63;;
28587;SDS011;15787;49.662;10.162;2023-05-10T09:24:18;3.45;;;1.83;;
28587;SDS011;15787;49.662;10.162;2023-05-10T09:26:51;4.13;;;1.88;;
28587;SDS011;15787;49.662;10.162;2023-05-10T09:29:24;3.65;;;1.70;;
28587;SDS011;15787;49.662;10.162;2023-05-10T09:31:58;4.13;;;2.20;;
28587;SDS011;15787;49.662;10.162;2023-05-10T09:34:32;3.00;;;1.77;;
28587;SDS011;15787;49.662;10.162;2023-05-10T09:37:06;2.55;;;1.70;;
28587;SDS011;15787;49.662;10.162;2023-05-10T09:39:39;4.28;;;2.17;;
28587;SDS011;15787;49.662;10.162;2023-05-10T09:42:12;1.73;;;1.33;;
28587;SDS011;15787;49.662;10.162;2023-05-10T09:44:45;2.42;;;1.65;;
28587;SDS011;15787;49.662;10.162;2023-05-10T09:47:20;3.30;;;1.52;;
28587;SDS011;15787;49.662;10.162;2023-05-10T09:49:53;2.53;;;1.75;;
28587;SDS011;15787;49.662;10.162;2023-05-10T09:52:29;3.15;;;1.63;;
28587;SDS011;15787;49.662;10.162;2023-05-10T09:55:02;5.68;;;2.05;;
28587;SDS011;15787;49.662;10.162;2023-05-10T09:57:36;4.88;;;1.55;;
28587;SDS011;15787;49.662;10.162;2023-05-10T10:00:10;2.25;;;1.27;;
28587;SDS011;15787;49.662;10.162;2023-05-10T10:02:55;2.58;;;1.10;;
28587;SDS011;15787;49.662;10.162;2023-05-10T10:05:29;1.65;;;1.10;;
28587;SDS011;15787;49.662;10.162;2023-05-10T10:08:04;1.27;;;0.80;;
28587;SDS011;15787;49.662;10.162;2023-05-10T10:10:38;2.63;;;1.23;;
28587;SDS011;15787;49.662;10.162;2023-05-10T10:13:11;2.00;;;1.10;;
28587;SDS011;15787;49.662;10.162;2023-05-10T10:15:44;1.92;;;1.15;;
28587;SDS011;15787;49.662;10.162;2023-05-10T10:18:23;7.40;;;1.58;;
28587;SDS011;15787;49.662;10.162;2023-05-10T10:20:58;2.25;;;1.02;;
28587;SDS011;15787;49.662;10.162;2023-05-10T10:23:32;3.10;;;1.10;;
28587;SDS011;15787;49.662;10.162;2023-05-10T10:26:05;3.60;;;0.90;;
28587;SDS011;15787;49.662;10.162;2023-05-10T10:28:39;2.20;;;0.85;;
28587;SDS011;15787;49.662;10.162;2023-05-10T10:31:34;2.65;;;1.00;;
28587;SDS011;15787;49.662;10.162;2023-05-10T10:34:17;3.03;;;0.85;;
28587;SDS011;15787;49.662;10.162;2023-05-10T10:36:59;1.02;;;0.65;;
28587;SDS011;15787;49.662;10.162;2023-05-10T10:39:37;5.07;;;0.80;;
28587;SDS011;15787;49.662;10.162;2023-05-10T10:42:10;2.75;;;1.17;;
28587;SDS011;15787;49.662;10.162;2023-05-10T10:44:43;1.27;;;0.85;;
28587;SDS011;15787;49.662;10.162;2023-05-10T10:47:22;2.13;;;1.10;;
28587;SDS011;15787;49.662;10.162;2023-05-10T10:50:04;2.72;;;0.88;;
28587;SDS011;15787;49.662;10.162;2023-05-10T10:52:38;3.80;;;1.33;;
28587;SDS011;15787;49.662;10.162;2023-05-10T10:55:12;1.40;;;0.70;;
28587;SDS011;15787;49.662;10.162;2023-05-10T10:57:49;2.45;;;1.10;;
28587;SDS011;15787;49.662;10.162;2023-05-10T11:01:14;1.50;;;0.88;;
28587;SDS011;15787;49.662;10.162;2023-05-10T11:06:54;1.63;;;0.88;;
28587;SDS011;15787;49.662;10.162;2023-05-10T11:09:51;2.42;;;0.50;;
28587;SDS011;15787;49.662;10.162;2023-05-10T11:12:24;4.00;;;0.70;;
28587;SDS011;15787;49.662;10.162;2023-05-10T11:14:57;2.85;;;0.80;;
28587;SDS011;15787;49.662;10.162;2023-05-10T11:17:30;2.20;;;0.65;;
28587;SDS011;15787;49.662;10.162;2023-05-10T11:20:07;2.92;;;0.80;;
28587;SDS011;15787;49.662;10.162;2023-05-10T11:22:51;2.20;;;0.90;;
28587;SDS011;15787;49.662;10.162;2023-05-10T11:25:42;2.20;;;0.90;;
28587;SDS011;15787;49.662;10.162;2023-05-10T11:28:52;2.90;;;0.90;;
28587;SDS011;15787;49.662;10.162;2023-05-10T11:31:27;3.85;;;0.80;;
28587;SDS011;15787;49.662;10.162;2023-05-10T11:34:01;1.65;;;0.90;;
28587;SDS011;15787;49.662;10.162;2023-05-10T11:36:34;3.63;;;0.90;;
28587;SDS011;15787;49.662;10.162;2023-05-10T11:39:09;1.48;;;0.80;;
28587;SDS011;15787;49.662;10.162;2023-05-10T11:41:42;1.50;;;0.68;;
28587;SDS011;15787;49.662;10.162;2023-05-10T11:44:15;2.05;;;0.70;;
28587;SDS011;15787;49.662;10.162;2023-05-10T11:46:49;3.13;;;1.00;;
28587;SDS011;15787;49.662;10.162;2023-05-10T11:49:22;1.75;;;0.95;;
28587;SDS011;15787;49.662;10.162;2023-05-10T11:52:04;1.40;;;0.70;;
28587;SDS011;15787;49.662;10.162;2023-05-10T11:54:42;1.67;;;1.00;;
28587;SDS011;15787;49.662;10.162;2023-05-10T11:57:18;2.25;;;0.95;;
28587;SDS011;15787;49.662;10.162;2023-05-10T11:59:52;3.42;;;0.80;;
28587;SDS011;15787;49.662;10.162;2023-05-10T12:02:26;2.20;;;0.70;;
28587;SDS011;15787;49.662;10.162;2023-05-10T12:04:59;1.15;;;0.80;;
28587;SDS011;15787;49.662;10.162;2023-05-10T12:07:32;2.03;;;0.70;;
28587;SDS011;15787;49.662;10.162;2023-05-10T12:10:08;2.63;;;0.75;;
28587;SDS011;15787;49.662;10.162;2023-05-10T12:12:44;1.58;;;0.88;;
28587;SDS011;15787;49.662;10.162;2023-05-10T12:15:19;2.05;;;0.77;;
28587;SDS011;15787;49.662;10.162;2023-05-10T12:17:53;5.60;;;0.82;;
28587;SDS011;15787;49.662;10.162;2023-05-10T12:20:27;3.78;;;0.75;;
28587;SDS011;15787;49.662;10.162;2023-05-10T12:23:00;1.83;;;0.68;;
28587;SDS011;15787;49.662;10.162;2023-05-10T12:25:37;2.00;;;0.95;;
28587;SDS011;15787;49.662;10.162;2023-05-10T12:28:11;1.42;;;0.80;;
28587;SDS011;15787;49.662;10.162;2023-05-10T12:30:43;3.58;;;0.80;;
28587;SDS011;15787;49.662;10.162;2023-05-10T12:33:16;3.58;;;0.82;;
28587;SDS011;15787;49.662;10.162;2023-05-10T12:35:50;2.22;;;0.82;;
28587;SDS011;15787;49.662;10.162;2023-05-10T12:38:26;3.25;;;0.95;;
28587;SDS011;15787;49.662;10.162;2023-05-10T12:41:03;4.13;;;0.90;;
28587;SDS011;15787;49.662;10.162;2023-05-10T12:43:37;1.50;;;0.80;;
28587;SDS011;15787;49.662;10.162;2023-05-10T12:46:11;1.70;;;0.60;;
28587;SDS011;15787;49.662;10.162;2023-05-10T12:48:45;1.23;;;0.80;;
28587;SDS011;15787;49.662;10.162;2023-05-10T12:51:30;1.40;;;0.60;;
28587;SDS011;15787;49.662;10.162;2023-05-10T12:54:03;1.15;;;0.63;;
28587;SDS011;15787;49.662;10.162;2023-05-10T12:56:38;3.65;;;1.00;;
28587;SDS011;15787;49.662;10.162;2023-05-10T12:59:12;4.00;;;0.77;;
28587;SDS011;15787;49.662;10.162;2023-05-10T13:01:45;1.83;;;0.50;;
28587;SDS011;15787;49.662;10.162;2023-05-10T13:04:18;2.67;;;1.00;;
28587;SDS011;15787;49.662;10.162;2023-05-10T13:06:50;2.70;;;0.50;;
28587;SDS011;15787;49.662;10.162;2023-05-10T13:09:23;1.70;;;0.35;;
28587;SDS011;15787;49.662;10.162;2023-05-10T13:11:57;2.80;;;0.40;;
28587;SDS011;15787;49.662;10.162;2023-05-10T13:14:31;3.92;;;0.60;;
28587;SDS011;15787;49.662;10.162;2023-05-10T13:17:04;0.90;;;0.50;;
28587;SDS011;15787;49.662;10.162;2023-05-10T13:19:37;1.95;;;0.98;;
28587;SDS011;15787;49.662;10.162;2023-05-10T13:22:10;1.65;;;0.75;;
28587;SDS011;15787;49.662;10.162;2023-05-10T13:24:43;3.47;;;0.60;;
28587;SDS011;15787;49.662;10.162;2023-05-10T13:27:17;0.85;;;0.60;;
28587;SDS011;15787;49.662;10.162;2023-05-10T13:29:50;2.60;;;0.70;;
28587;SDS011;15787;49.662;10.162;2023-05-10T13:32:23;1.13;;;0.60;;
28587;SDS011;15787;49.662;10.162;2023-05-10T13:34:55;3.08;;;0.82;;
28587;SDS011;15787;49.662;10.162;2023-05-10T13:37:28;3.25;;;0.90;;
28587;SDS011;15787;49.662;10.162;2023-05-10T13:40:01;1.70;;;0.80;;
28587;SDS011;15787;49.662;10.162;2023-05-10T13:42:37;1.08;;;0.95;;
28587;SDS011;15787;49.662;10.162;2023-05-10T13:45:10;1.10;;;0.85;;
28587;SDS011;15787;49.662;10.162;2023-05-10T13:47:44;2.83;;;0.98;;
28587;SDS011;15787;49.662;10.162;2023-05-10T13:50:18;1.30;;;0.75;;
28587;SDS011;15787;49.662;10.162;2023-05-10T13:52:51;2.05;;;1.15;;
28587;SDS011;15787;49.662;10.162;2023-05-10T13:55:23;1.98;;;1.10;;
28587;SDS011;15787;49.662;10.162;2023-05-10T13:57:58;4.85;;;1.48;;
28587;SDS011;15787;49.662;10.162;2023-05-10T14:00:30;2.03;;;1.00;;
28587;SDS011;15787;49.662;10.162;2023-05-10T14:03:03;2.05;;;1.17;;
28587;SDS011;15787;49.662;10.162;2023-05-10T14:05:37;1.90;;;1.08;;
28587;SDS011;15787;49.662;10.162;2023-05-10T14:08:11;2.30;;;1.25;;
28587;SDS011;15787;49.662;10.162;2023-05-10T14:10:44;1.63;;;1.00;;
28587;SDS011;15787;49.662;10.162;2023-05-10T14:13:18;3.38;;;1.40;;
28587;SDS011;15787;49.662;10.162;2023-05-10T14:15:53;2.33;;;1.10;;
28587;SDS011;15787;49.662;10.162;2023-05-10T14:18:26;1.60;;;1.25;;
28587;SDS011;15787;49.662;10.162;2023-05-10T14:21:00;3.08;;;1.50;;
28587;SDS011;15787;49.662;10.162;2023-05-10T14:23:34;4.70;;;1.52;;
28587;SDS011;15787;49.662;10.162;2023-05-10T14:26:06;3.80;;;1.25;;
28587;SDS011;15787;49.662;10.162;2023-05-10T14:28:41;3.95;;;1.13;;
28587;SDS011;15787;49.662;10.162;2023-05-10T14:31:14;3.75;;;1.48;;
28587;SDS011;15787;49.662;10.162;2023-05-10T14:33:48;1.55;;;1.30;;
28587;SDS011;15787;49.662;10.162;2023-05-10T14:36:21;1.52;;;1.17;;
28587;SDS011;15787;49.662;10.162;2023-05-10T14:38:54;1.38;;;1.10;;
28587;SDS011;15787;49.662;10.162;2023-05-10T14:41:27;3.25;;;1.10;;
28587;SDS011;15787;49.662;10.162;2023-05-10T14:44:02;1.58;;;1.10;;
28587;SDS011;15787;49.662;10.162;2023-05-10T14:46:36;1.88;;;1.10;;
28587;SDS011;15787;49.662;10.162;2023-05-10T14:49:09;1.70;;;1.20;;
28587;SDS011;15787;49.662;10.162;2023-05-10T14:51:42;2.30;;;1.33;;
28587;SDS011;15787;49.662;10.162;2023-05-10T14:54:16;3.58;;;1.10;;
28587;SDS011;15787;49.662;10.162;2023-05-10T14:56:49;3.85;;;1.35;;
28587;SDS011;15787;49.662;10.162;2023-05-10T14:59:23;3.65;;;1.13;;
28587;SDS011;15787;49.662;10.162;2023-05-10T15:01:57;3.25;;;1.25;;
28587;SDS011;15787;49.662;10.162;2023-05-10T15:04:30;3.38;;;1.20;;
28587;SDS011;15787;49.662;10.162;2023-05-10T15:07:03;2.15;;;0.82;;
28587;SDS011;15787;49.662;10.162;2023-05-10T15:09:37;2.63;;;1.13;;
28587;SDS011;15787;49.662;10.162;2023-05-10T15:12:09;1.10;;;0.70;;
28587;SDS011;15787;49.662;10.162;2023-05-10T15:14:44;5.40;;;1.27;;
28587;SDS011;15787;49.662;10.162;2023-05-10T15:17:17;1.58;;;0.98;;
28587;SDS011;15787;49.662;10.162;2023-05-10T15:19:49;1.77;;;1.02;;
28587;SDS011;15787;49.662;10.162;2023-05-10T15:22:22;4.40;;;1.10;;
28587;SDS011;15787;49.662;10.162;2023-05-10T15:24:56;1.55;;;1.00;;
28587;SDS011;15787;49.662;10.162;2023-05-10T15:27:29;3.38;;;1.10;;